Time;durP1;ratioP1;P1;durP2;ratioP2;P2;SDS_P1;SDS_P2;PMS_P1;PMS_P2;Temp;Humidity;BMP_temperature;BMP_pressure;BME280_temperature;BME280_humidity;BME280_pressure;Samples;Min_cycle;Max_cycle;Signal;HPM_P1;HPM_P2
2021/06/14 00:01:51;;;;;;;8.40;4.60;;;;;;;16.40;59.53;102423.75;5136572;27;20265;-40
2021/06/14 00:04:17;;;;;;;7.60;4.95;;;;;;;16.34;59.93;102416.47;5137302;27;20257;-40
2021/06/14 00:06:42;;;;;;;;;;;;;;;16.58;57.36;102418.22;5137495;27;20096;-40
2021/06/14 00:09:07;;;;;;;9.63;4.65;;;;;;;16.33;60.71;102417.53;5136600;27;19907;-40
2021/06/14 00:11:33;;;;;;;;;;;;;;;16.56;57.68;102419.53;5137575;27;20023;-41
2021/06/14 00:13:58;;;;;;;7.97;4.28;;;;;;;16.28;60.13;102411.94;5135281;27;20296;-40
2021/06/14 00:16:23;;;;;;;7.35;5.43;;;;;;;16.22;59.70;102406.34;5136541;27;20038;-41
2021/06/14 00:18:49;;;;;;;;;;;;;;;16.41;57.85;102406.28;5136515;27;20019;-40
2021/06/14 00:21:14;;;;;;;6.82;4.78;;;;;;;16.09;60.53;102414.69;5136686;27;19915;-41
2021/06/14 00:23:40;;;;;;;6.80;5.05;;;;;;;16.04;61.14;102403.63;5136561;27;20019;-40
2021/06/14 00:26:11;;;;;;;9.13;5.10;;;;;;;15.96;60.79;102409.44;5136333;27;20053;-40
2021/06/14 00:28:38;;;;;;;8.60;5.57;;;;;;;15.90;61.90;102410.31;5136568;27;20031;-40
2021/06/14 00:31:04;;;;;;;8.75;5.60;;;;;;;15.94;61.37;102406.06;5136030;27;20379;-40
2021/06/14 00:33:29;;;;;;;;;;;;;;;16.15;59.18;102400.16;5136866;27;20027;-40
2021/06/14 00:35:55;;;;;;;9.75;4.78;;;;;;;15.90;62.01;102399.41;5135792;27;19903;-40
2021/06/14 00:38:21;;;;;;;7.68;5.20;;;;;;;15.88;62.10;102396.09;5135677;27;20022;-40
2021/06/14 00:40:47;;;;;;;6.47;4.85;;;;;;;15.82;62.62;102388.81;5136600;27;20031;-40
2021/06/14 00:43:13;;;;;;;8.43;4.95;;;;;;;15.75;62.69;102385.31;5135944;27;20034;-41
2021/06/14 00:45:45;;;;;;;9.73;4.75;;;;;;;15.69;62.97;102378.91;5137007;27;20022;-40
2021/06/14 00:48:11;;;;;;;7.20;4.95;;;;;;;15.69;63.05;102382.44;5136405;27;20054;-40
2021/06/14 00:50:42;;;;;;;;;;;;;;;15.93;60.18;102377.13;5136328;27;20030;-40
2021/06/14 00:53:16;;;;;;;8.30;4.47;;;;;;;15.66;62.77;102372.03;5135501;27;19989;-40
2021/06/14 00:55:42;;;;;;;7.38;5.32;;;;;;;15.63;62.92;102374.31;5135474;27;20019;-40
2021/06/14 00:58:07;;;;;;;;;;;;;;;15.84;60.33;102371.16;5135950;27;20023;-40
2021/06/14 01:00:33;;;;;;;6.60;4.18;;;;;;;15.55;63.46;102363.72;5135479;27;19908;-40
2021/06/14 01:02:58;;;;;;;8.70;4.28;;;;;;;15.51;63.81;102366.06;5135517;27;20023;-40
2021/06/14 01:05:26;;;;;;;6.78;4.68;;;;;;;15.49;63.42;102370.91;5135804;27;20439;-40
2021/06/14 01:07:51;;;;;;;7.45;4.88;;;;;;;15.45;64.13;102364.25;5135312;27;20030;-40
2021/06/14 01:10:17;;;;;;;;;;;;;;;15.64;61.01;102357.75;5136396;27;20418;-41
2021/06/14 01:12:58;;;;;;;8.32;4.75;;;;;;;15.41;63.81;102363.84;5135332;27;19907;-40
2021/06/14 01:15:32;;;;;;;7.75;4.18;;;;;;;15.45;64.58;102347.88;5135490;27;20067;-40
2021/06/14 01:18:07;;;;;;;6.22;4.28;;;;;;;15.39;64.76;102355.09;5135199;27;20031;-40
2021/06/14 01:20:42;;;;;;;7.03;4.60;;;;;;;15.35;64.68;102344.84;5135738;27;20019;-40
2021/06/14 01:23:35;;;;;;;9.65;5.25;;;;;;;15.38;65.31;102347.13;5135374;27;20454;-40
2021/06/14 01:26:10;;;;;;;7.75;4.65;;;;;;;15.44;64.57;102346.22;5135172;27;20039;-41
2021/06/14 01:28:37;;;;;;;8.07;5.43;;;;;;;15.26;65.15;102335.31;5135061;27;20038;-41
2021/06/14 01:31:04;;;;;;;8.93;5.22;;;;;;;15.27;65.76;102342.41;5135047;27;20031;-40
2021/06/14 01:33:32;;;;;;;6.45;5.00;;;;;;;15.29;65.38;102343.03;5135495;27;20058;-40
2021/06/14 01:36:03;;;;;;;11.32;5.07;;;;;;;15.17;66.13;102351.94;5135229;27;20015;-40
2021/06/14 01:38:30;;;;;;;8.38;4.38;;;;;;;15.15;65.89;102337.72;5135672;27;20026;-40
2021/06/14 01:40:59;;;;;;;12.23;5.70;;;;;;;15.11;65.99;102335.66;5135485;27;20052;-40
2021/06/14 01:43:26;;;;;;;7.07;4.93;;;;;;;15.11;65.92;102341.13;5134791;27;20018;-40
2021/06/14 01:45:56;;;;;;;7.93;5.00;;;;;;;15.05;65.24;102336.56;5134506;27;20106;-40
2021/06/14 01:48:24;;;;;;;8.07;5.45;;;;;;;15.01;65.83;102330.72;5134381;27;20023;-40
2021/06/14 01:50:51;;;;;;;9.27;5.60;;;;;;;14.99;65.92;102329.31;5135270;27;20027;-40
2021/06/14 01:53:17;;;;;;;6.95;5.07;;;;;;;14.92;66.10;102319.28;5134871;27;20090;-40
2021/06/14 01:55:43;;;;;;;;;;;;;;;15.19;63.37;102310.88;5135360;27;20448;-40
2021/06/14 01:58:10;;;;;;;6.65;4.93;;;;;;;14.94;65.92;102316.38;5134601;27;19993;-40
2021/06/14 02:00:40;;;;;;;6.57;4.72;;;;;;;14.92;65.71;102315.72;5134227;27;20026;-40
2021/06/14 02:03:06;;;;;;;9.02;5.55;;;;;;;14.95;65.91;102315.31;5134586;27;20023;-40
2021/06/14 02:05:32;;;;;;;10.85;5.50;;;;;;;14.92;65.42;102299.41;5134313;27;20016;-40
2021/06/14 02:07:59;;;;;;;9.68;6.18;;;;;;;14.81;65.11;102303.69;5134226;27;20356;-40
2021/06/14 02:10:25;;;;;;;10.68;6.57;;;;;;;14.84;65.25;102299.69;5135300;27;20042;-40
2021/06/14 02:12:52;;;;;;;7.93;5.20;;;;;;;14.76;65.71;102306.25;5134417;27;20038;-40
2021/06/14 02:15:21;;;;;;;7.32;5.35;;;;;;;14.77;65.68;102307.09;5134431;27;20034;-40
2021/06/14 02:17:46;;;;;;;12.50;6.43;;;;;;;14.71;65.63;102299.81;5134933;27;20450;-40
2021/06/14 02:20:14;;;;;;;8.75;6.10;;;;;;;14.71;64.57;102291.66;5134648;27;20101;-40
2021/06/14 02:22:40;;;;;;;10.50;5.72;;;;;;;14.68;66.01;102301.09;5134087;27;20491;-40
2021/06/14 02:25:10;;;;;;;9.40;6.20;;;;;;;14.71;64.89;102297.09;5134666;27;20348;-40
2021/06/14 02:27:36;;;;;;;10.88;6.60;;;;;;;14.59;65.02;102289.66;5137650;27;20455;-40
2021/06/14 02:30:04;;;;;;;8.32;6.43;;;;;;;14.63;66.06;102285.41;5138363;27;20041;-40
2021/06/14 02:32:31;;;;;;;10.13;6.70;;;;;;;14.48;66.46;102276.75;5137254;27;20374;-40
2021/06/14 02:34:57;;;;;;;9.45;6.53;;;;;;;14.58;65.67;102270.81;5138793;27;20110;-40
2021/06/14 02:37:22;;;;;;;10.03;6.70;;;;;;;14.70;66.08;102268.22;5138368;27;20059;-40
2021/06/14 02:39:51;;;;;;;11.48;7.22;;;;;;;14.59;66.37;102262.44;5137972;27;20413;-40
2021/06/14 02:42:17;;;;;;;10.50;7.20;;;;;;;14.72;66.07;102260.63;5138196;27;20031;-40
2021/06/14 02:44:44;;;;;;;11.05;7.50;;;;;;;14.68;65.21;102250.19;5137959;27;20019;-40
2021/06/14 02:47:12;;;;;;;11.30;8.05;;;;;;;14.67;65.45;102256.69;5138890;27;20090;-40
2021/06/14 02:49:39;;;;;;;12.27;7.97;;;;;;;14.64;64.36;102262.59;5138443;27;20030;-40
2021/06/14 02:52:10;;;;;;;10.75;8.18;;;;;;;14.62;64.68;102264.69;5137824;27;20451;-40
2021/06/14 02:54:45;;;;;;;10.98;7.95;;;;;;;14.59;62.73;102267.88;5137304;27;20023;-40
2021/06/14 02:57:12;;;;;;;10.02;8.27;;;;;;;14.35;63.82;102271.41;5138564;27;20347;-40
2021/06/14 02:59:39;;;;;;;13.85;9.02;;;;;;;14.26;63.58;102272.72;5137890;27;20051;-40
2021/06/14 03:02:06;;;;;;;15.30;8.65;;;;;;;14.30;64.34;102272.06;5137924;27;20098;-40
2021/06/14 03:04:33;;;;;;;13.15;9.30;;;;;;;14.30;64.37;102279.38;5138176;27;20412;-40
2021/06/14 03:06:58;;;;;;;12.85;8.68;;;;;;;14.21;63.78;102275.28;5137780;27;20027;-40
2021/06/14 03:09:24;;;;;;;11.60;9.27;;;;;;;14.20;62.04;102273.59;5137573;27;20076;-40
2021/06/14 03:11:51;;;;;;;11.90;8.38;;;;;;;14.18;64.17;102276.53;5138470;27;20023;-41
2021/06/14 03:14:17;;;;;;;12.98;8.77;;;;;;;14.13;65.82;102273.66;5137976;27;20016;-40
2021/06/14 03:16:44;;;;;;;12.70;8.68;;;;;;;14.10;65.84;102268.63;5137628;27;20080;-40
2021/06/14 03:19:11;;;;;;;12.63;8.70;;;;;;;14.11;66.26;102262.16;5137988;27;20026;-40
2021/06/14 03:21:38;;;;;;;12.68;8.60;;;;;;;14.07;66.99;102263.66;5137625;27;20027;-40
2021/06/14 03:24:04;;;;;;;14.75;8.93;;;;;;;14.04;67.00;102273.06;5137452;27;20094;-40
2021/06/14 03:26:38;;;;;;;13.02;9.10;;;;;;;14.06;66.66;102268.25;5137667;27;20035;-40
2021/06/14 03:29:05;;;;;;;11.52;8.35;;;;;;;14.05;66.70;102261.13;5137874;27;20031;-40
2021/06/14 03:31:31;;;;;;;13.65;9.30;;;;;;;14.17;67.23;102259.38;5137650;27;20030;-40
2021/06/14 03:33:57;;;;;;;12.07;8.32;;;;;;;14.15;67.20;102261.50;5138009;27;20416;-40
2021/06/14 03:36:27;;;;;;;13.65;8.00;;;;;;;14.13;67.44;102260.88;5137079;27;20102;-40
2021/06/14 03:38:52;;;;;;;11.65;8.38;;;;;;;14.13;67.75;102257.31;5136942;27;20027;-40
2021/06/14 03:41:19;;;;;;;11.75;8.77;;;;;;;14.19;67.63;102261.88;5137517;27;20285;-40
2021/06/14 03:43:45;;;;;;;11.82;8.32;;;;;;;14.17;67.63;102262.09;5137011;27;20460;-40
2021/06/14 03:46:11;;;;;;;12.57;8.25;;;;;;;14.12;67.47;102261.09;5137360;27;20023;-40
2021/06/14 03:48:36;;;;;;;11.80;8.63;;;;;;;14.08;68.09;102259.88;5137066;27;20183;-40
2021/06/14 03:51:03;;;;;;;10.90;8.25;;;;;;;14.05;66.76;102261.13;5136703;27;20030;-40
2021/06/14 03:53:31;;;;;;;13.55;8.52;;;;;;;14.02;68.02;102274.34;5137697;27;20033;-40
2021/06/14 03:56:08;;;;;;;10.02;8.45;;;;;;;14.01;68.05;102284.41;5136855;27;20061;-40
2021/06/14 03:58:34;;;;;;;13.23;8.93;;;;;;;14.05;68.13;102274.72;5137537;27;20030;-40
2021/06/14 04:01:00;;;;;;;13.82;8.30;;;;;;;14.01;68.03;102270.81;5136441;27;20079;-40
2021/06/14 04:03:28;;;;;;;10.60;8.40;;;;;;;13.99;68.41;102266.63;5136964;27;20032;-40
2021/06/14 04:05:55;;;;;;;11.48;8.13;;;;;;;13.98;68.72;102271.22;5136415;27;20177;-40
2021/06/14 04:08:22;;;;;;;10.93;8.60;;;;;;;13.96;68.50;102267.06;5136817;27;20091;-40
2021/06/14 04:10:47;;;;;;;11.75;8.40;;;;;;;13.96;68.29;102276.06;5136557;27;20023;-40
2021/06/14 04:13:13;;;;;;;13.82;8.95;;;;;;;14.09;68.07;102267.81;5137030;27;20072;-40
2021/06/14 04:15:38;;;;;;;11.20;7.77;;;;;;;14.04;68.67;102275.78;5136528;27;20023;-40
2021/06/14 04:18:04;;;;;;;11.05;8.90;;;;;;;14.01;68.66;102273.53;5136440;27;20551;-40
2021/06/14 04:20:30;;;;;;;;;;;;;;;14.25;66.41;102268.31;5136434;27;20111;-40
2021/06/14 04:22:56;;;;;;;11.25;8.35;;;;;;;14.16;68.42;102271.31;5136250;27;19996;-40
2021/06/14 04:25:22;;;;;;;15.07;8.57;;;;;;;14.20;68.78;102273.59;5136229;27;20451;-40
2021/06/14 04:27:47;;;;;;;9.27;8.05;;;;;;;14.17;67.91;102274.88;5136684;27;20035;-40
2021/06/14 04:30:14;;;;;;;12.40;8.82;;;;;;;14.20;67.97;102273.59;5135959;27;20027;-40
2021/06/14 04:32:39;;;;;;;12.65;8.68;;;;;;;14.23;69.52;102267.72;5136001;27;20277;-40
2021/06/14 04:35:06;;;;;;;10.25;7.95;;;;;;;14.29;69.86;102264.09;5136408;27;20079;-40
2021/06/14 04:37:32;;;;;;;11.90;9.40;;;;;;;14.40;69.19;102260.69;5136441;27;20317;-40
2021/06/14 04:39:58;;;;;;;15.07;10.18;;;;;;;14.53;69.88;102257.03;5136194;27;20015;-40
2021/06/14 04:42:25;;;;;;;13.15;10.07;;;;;;;14.65;68.67;102255.25;5135638;27;20467;-40
2021/06/14 04:44:51;;;;;;;14.32;9.65;;;;;;;14.72;68.08;102250.56;5136166;27;20365;-40
2021/06/14 04:47:16;;;;;;;15.27;9.85;;;;;;;14.89;67.59;102259.84;5136100;27;20026;-40
2021/06/14 04:49:41;;;;;;;12.53;10.17;;;;;;;15.04;67.25;102256.75;5135442;27;20027;-40
2021/06/14 04:52:07;;;;;;;13.30;9.07;;;;;;;15.18;67.76;102251.97;5135728;27;20287;-40
2021/06/14 04:54:32;;;;;;;13.50;9.75;;;;;;;15.33;67.65;102246.97;5136549;27;20046;-40
2021/06/14 04:56:57;;;;;;;15.00;9.27;;;;;;;15.53;66.60;102248.63;5135910;27;20457;-40
2021/06/14 04:59:24;;;;;;;14.95;10.48;;;;;;;15.63;66.00;102252.47;5135259;27;20015;-40
2021/06/14 05:01:49;;;;;;;16.60;9.98;;;;;;;15.88;64.74;102251.50;5136143;27;20026;-40
2021/06/14 05:04:15;;;;;;;;;;;;;;;16.09;64.24;102261.88;5136211;27;20035;-40
2021/06/14 05:06:40;;;;;;;13.70;9.90;;;;;;;16.23;61.58;102255.16;5135777;27;19903;-40
2021/06/14 05:09:05;;;;;;;14.05;9.75;;;;;;;16.40;62.67;102259.94;5135361;27;20043;-40
2021/06/14 05:11:31;;;;;;;16.38;10.40;;;;;;;16.51;60.75;102248.19;5135169;27;20472;-40
2021/06/14 05:13:56;;;;;;;11.47;9.23;;;;;;;16.65;60.54;102260.56;5135319;27;20031;-40
2021/06/14 05:16:21;;;;;;;;;;;;;;;16.82;61.44;102243.47;5135772;27;20015;-40
2021/06/14 05:18:47;;;;;;;13.37;9.73;;;;;;;16.85;59.18;102248.47;5134892;27;20006;-48
2021/06/14 05:21:12;;;;;;;14.07;9.33;;;;;;;16.93;59.49;102256.28;5135202;27;20265;-41
2021/06/14 05:23:37;;;;;;;9.90;8.10;;;;;;;17.04;59.29;102257.34;5135091;27;20272;-40
2021/06/14 05:26:02;;;;;;;;;;;;;;;17.22;59.65;102265.38;5135810;27;20509;-40
2021/06/14 05:28:28;;;;;;;16.50;9.67;;;;;;;17.19;58.01;102265.88;5135550;27;19912;-40
2021/06/14 05:30:54;;;;;;;12.48;8.73;;;;;;;17.24;59.58;102275.03;5135044;27;20272;-40
2021/06/14 05:33:19;;;;;;;12.10;8.73;;;;;;;17.38;57.36;102272.03;5135789;27;20098;-40
2021/06/14 05:35:44;;;;;;;;;;;;;;;17.59;58.77;102282.28;5135104;27;20031;-40
2021/06/14 05:38:10;;;;;;;11.98;9.05;;;;;;;17.55;57.81;102280.28;5134790;27;19903;-40
2021/06/14 05:40:35;;;;;;;;;;;;;;;17.71;57.76;102274.88;5135274;27;20030;-40
2021/06/14 05:43:00;;;;;;;15.02;9.02;;;;;;;17.63;55.97;102266.22;5134982;27;19907;-40
2021/06/14 05:45:26;;;;;;;;;;;;;;;17.86;57.66;102259.84;5135509;27;20027;-40
2021/06/14 05:47:51;;;;;;;14.75;9.32;;;;;;;17.79;57.39;102251.78;5133440;27;19945;-40
2021/06/14 05:50:16;;;;;;;;;;;;;;;18.00;56.71;102256.56;5135378;27;20031;-40
2021/06/14 05:52:42;;;;;;;12.23;9.23;;;;;;;17.93;56.86;102249.59;5134336;27;19911;-40
2021/06/14 05:55:08;;;;;;;;;;;;;;;18.05;56.69;102246.78;5134782;27;20031;-40
2021/06/14 05:57:33;;;;;;;17.63;9.75;;;;;;;17.83;57.02;102246.66;5134642;27;19908;-40
2021/06/14 05:59:58;;;;;;;;;;;;;;;17.95;56.77;102245.50;5135020;27;20024;-40
2021/06/14 06:02:24;;;;;;;19.57;9.27;;;;;;;17.88;56.17;102238.56;5134235;27;20301;-40
2021/06/14 06:04:49;;;;;;;;;;;;;;;18.09;56.67;102243.28;5135782;27;20253;-40
2021/06/14 06:07:14;;;;;;;14.13;8.83;;;;;;;18.09;55.76;102226.88;5134481;27;20208;-40
2021/06/14 06:09:40;;;;;;;;;;;;;;;18.29;55.66;102220.91;5135128;27;20455;-40
2021/06/14 06:12:06;;;;;;;14.00;9.23;;;;;;;18.26;55.54;102221.41;5134123;27;19908;-40
2021/06/14 06:14:31;;;;;;;;;;;;;;;18.45;56.41;102216.53;5135283;27;20027;-40
2021/06/14 06:16:56;;;;;;;14.73;8.97;;;;;;;18.42;57.13;102217.84;5134645;28;19911;-40
2021/06/14 06:19:22;;;;;;;14.30;10.02;;;;;;;18.46;57.29;102215.44;5134768;27;20273;-40
2021/06/14 06:21:47;;;;;;;;;;;;;;;18.64;56.48;102214.31;5134439;27;20023;-40
2021/06/14 06:24:12;;;;;;;18.95;9.63;;;;;;;18.57;55.53;102214.50;5134418;27;19903;-40
2021/06/14 06:26:37;;;;;;;;;;;;;;;18.74;55.87;102212.59;5134775;28;20051;-40
2021/06/14 06:29:03;;;;;;;15.30;9.87;;;;;;;18.73;56.50;102210.91;5134329;28;19907;-40
2021/06/14 06:31:30;;;;;;;16.23;9.88;;;;;;;18.76;55.81;102202.19;5134579;27;20026;-40
2021/06/14 06:33:56;;;;;;;19.35;11.38;;;;;;;18.86;56.02;102203.44;5134196;27;20098;-40
2021/06/14 06:36:21;;;;;;;;;;;;;;;19.04;55.66;102206.69;5134612;27;20106;-40
2021/06/14 06:38:46;;;;;;;15.88;10.57;;;;;;;18.98;57.40;102212.34;5134050;28;19918;-40
2021/06/14 06:41:11;;;;;;;;;;;;;;;19.14;56.28;102205.16;5135419;27;20027;-40
2021/06/14 06:43:37;;;;;;;28.92;11.63;;;;;;;19.16;56.19;102208.47;5134378;27;19903;-40
2021/06/14 06:46:03;;;;;;;;;;;;;;;19.34;55.98;102210.88;5134905;27;20102;-40
2021/06/14 06:48:29;;;;;;;21.33;10.27;;;;;;;19.32;55.32;102209.47;5134169;27;20361;-40
2021/06/14 06:50:55;;;;;;;14.95;9.85;;;;;;;19.37;53.63;102212.28;5134898;27;20016;-40
2021/06/14 06:53:21;;;;;;;11.73;9.02;;;;;;;19.43;53.23;102208.53;5133735;27;20015;-40
2021/06/14 06:55:46;;;;;;;;;;;;;;;19.60;54.49;102202.97;5134449;28;20031;-40
2021/06/14 06:58:12;;;;;;;14.15;8.63;;;;;;;19.55;53.55;102201.78;5134573;27;19946;-40
2021/06/14 07:00:37;;;;;;;;;;;;;;;19.73;53.90;102202.56;5134674;28;20026;-40
2021/06/14 07:03:03;;;;;;;10.88;8.05;;;;;;;19.68;53.06;102195.09;5133965;27;19915;-40
2021/06/14 07:05:29;;;;;;;14.00;9.75;;;;;;;19.60;52.89;102202.97;5134292;27;20034;-40
2021/06/14 07:07:54;;;;;;;;;;;;;;;19.82;53.51;102198.25;5134667;27;20019;-40
2021/06/14 07:10:20;;;;;;;14.43;9.67;;;;;;;19.72;53.16;102195.41;5134216;28;20246;-40
2021/06/14 07:12:45;;;;;;;;;;;;;;;19.89;53.49;102198.03;5136415;27;20592;-40
2021/06/14 07:15:14;;;;;;;17.27;10.10;;;;;;;19.87;54.06;102192.81;5137389;27;20359;-40
2021/06/14 07:17:42;;;;;;;14.40;8.77;;;;;;;19.94;53.62;102190.66;5138442;27;20019;-40
2021/06/14 07:20:09;;;;;;;13.57;9.00;;;;;;;20.01;53.38;102188.56;5137818;27;20027;-40
2021/06/14 07:22:35;;;;;;;14.02;9.13;;;;;;;20.14;53.15;102172.72;5137236;27;20517;-40
2021/06/14 07:25:00;;;;;;;;;;;;;;;20.26;51.43;102176.09;5138012;27;20099;-40
2021/06/14 07:27:26;;;;;;;17.25;9.43;;;;;;;20.26;51.48;102170.63;5138385;27;20385;-40
2021/06/14 07:29:51;;;;;;;;;;;;;;;20.40;51.73;102179.19;5138116;27;20115;-40
2021/06/14 07:32:16;;;;;;;14.13;9.90;;;;;;;20.40;51.66;102168.22;5137345;27;20414;-40
2021/06/14 07:34:41;;;;;;;;;;;;;;;20.55;52.30;102169.19;5138328;27;20787;-41
2021/06/14 07:37:07;;;;;;;15.57;9.60;;;;;;;20.55;51.64;102169.19;5137051;27;19914;-41
2021/06/14 07:39:32;;;;;;;;;;;;;;;20.71;51.32;102164.59;5138487;27;20265;-40
2021/06/14 07:41:58;;;;;;;14.07;9.00;;;;;;;20.73;49.75;102162.38;5137164;27;19907;-41
2021/06/14 07:44:23;;;;;;;16.67;8.48;;;;;;;20.81;48.99;102158.31;5136948;27;20027;-40
2021/06/14 07:46:49;;;;;;;13.43;8.05;;;;;;;20.93;48.67;102145.16;5136815;27;20381;-40
2021/06/14 07:49:14;;;;;;;;;;;;;;;21.06;49.27;102141.09;5137061;27;20043;-41
2021/06/14 07:51:40;;;;;;;14.30;8.60;;;;;;;21.15;48.40;102142.22;5137050;27;19907;-40
2021/06/14 07:54:05;;;;;;;17.05;8.23;;;;;;;21.14;49.78;102137.00;5136668;27;20050;-40
2021/06/14 07:56:31;;;;;;;;;;;;;;;21.32;49.53;102134.56;5138217;27;20106;-40
2021/06/14 07:58:56;;;;;;;12.52;7.82;;;;;;;21.44;48.14;102133.50;5136743;27;19958;-40
2021/06/14 08:01:22;;;;;;;14.15;8.90;;;;;;;21.52;47.20;102130.22;5137125;27;20023;-40
2021/06/14 08:03:48;;;;;;;18.83;8.68;;;;;;;21.65;48.61;102128.84;5135435;27;20118;-40
2021/06/14 08:06:13;;;;;;;;;;;;;;;21.83;48.95;102115.38;5137464;27;20058;-40
2021/06/14 08:08:38;;;;;;;13.07;8.07;;;;;;;21.89;48.22;102118.13;5136642;27;19971;-41
2021/06/14 08:11:04;;;;;;;13.98;8.55;;;;;;;22.01;47.59;102119.50;5137345;27;20023;-40
2021/06/14 08:13:30;;;;;;;13.60;6.45;;;;;;;22.14;44.04;102120.03;5137048;27;20438;-40
2021/06/14 08:15:58;;;;;;;10.93;6.25;;;;;;;22.17;44.45;102112.06;5136743;27;20035;-40
2021/06/14 08:21:23;;;;;;;15.40;7.60;;;;;;;22.35;44.18;102110.63;5136792;27;20035;-40
2021/06/14 08:26:33;;;;;;;9.45;5.38;;;;;;;22.67;41.49;102109.44;5136470;27;20126;-41
2021/06/14 08:29:00;;;;;;;11.82;4.80;;;;;;;22.90;41.73;102111.56;5136855;27;20059;-40
2021/06/14 08:31:27;;;;;;;13.75;4.80;;;;;;;23.01;41.83;102110.41;5136566;27;20105;-40
2021/06/14 08:33:53;;;;;;;10.10;4.18;;;;;;;23.17;42.05;102104.78;5135800;27;20479;-41
2021/06/14 08:36:19;;;;;;;9.40;3.97;;;;;;;23.17;40.07;102100.09;5136161;27;20102;-40
2021/06/14 08:38:45;;;;;;;9.38;3.90;;;;;;;23.32;40.17;102101.91;5136092;27;20468;-41
2021/06/14 08:41:10;;;;;;;9.70;3.85;;;;;;;23.38;40.38;102093.34;5135879;27;20031;-41
2021/06/14 08:43:36;;;;;;;8.27;3.50;;;;;;;23.40;40.89;102098.56;5136494;27;20027;-40
2021/06/14 08:46:02;;;;;;;8.98;3.75;;;;;;;23.56;39.92;102102.84;5136011;27;20076;-40
2021/06/14 08:48:30;;;;;;;9.43;3.53;;;;;;;23.61;38.69;102089.00;5135879;27;20035;-41
2021/06/14 08:50:56;;;;;;;6.32;3.00;;;;;;;23.78;39.39;102104.38;5135649;27;20484;-41
2021/06/14 08:53:22;;;;;;;6.53;2.90;;;;;;;23.79;38.89;102090.25;5135870;27;20052;-40
2021/06/14 08:55:48;;;;;;;7.15;3.13;;;;;;;23.90;38.86;102097.34;5135806;27;20066;-41
2021/06/14 08:58:14;;;;;;;8.07;3.40;;;;;;;24.04;38.40;102085.59;5135734;27;20061;-41
2021/06/14 09:00:39;;;;;;;10.50;3.83;;;;;;;24.18;38.12;102092.09;5135699;27;20460;-41
2021/06/14 09:03:05;;;;;;;7.97;3.30;;;;;;;24.25;38.74;102087.03;5135608;27;20159;-41
2021/06/14 09:05:31;;;;;;;8.90;3.22;;;;;;;24.40;38.02;102089.69;5135376;27;20030;-40
2021/06/14 09:07:56;;;;;;;5.78;2.92;;;;;;;24.51;37.84;102082.06;5135837;27;20027;-40
2021/06/14 09:10:37;;;;;;;6.55;2.97;;;;;;;24.57;36.67;102082.84;5135571;27;20034;-41
2021/06/14 09:13:15;;;;;;;5.57;2.78;;;;;;;24.69;38.35;102083.22;5135425;27;20026;-41
2021/06/14 09:15:43;;;;;;;5.03;2.75;;;;;;;24.79;37.36;102072.03;5135967;27;20019;-41
2021/06/14 09:18:22;;;;;;;6.60;2.83;;;;;;;25.04;37.87;102075.56;5135033;27;20019;-41
2021/06/14 09:21:05;;;;;;;6.35;3.35;;;;;;;25.19;37.89;102083.69;5135562;27;20023;-41
2021/06/14 09:23:42;;;;;;;7.97;3.13;;;;;;;25.28;37.38;102081.88;5135220;27;20103;-41
2021/06/14 09:26:08;;;;;;;5.90;3.08;;;;;;;25.35;36.97;102085.06;5136084;27;20031;-41
2021/06/14 09:28:33;;;;;;;6.97;3.28;;;;;;;25.36;35.79;102075.63;5135679;27;20037;-41
2021/06/14 09:31:12;;;;;;;7.03;2.85;;;;;;;25.49;36.65;102068.53;5135475;27;20083;-41
2021/06/14 09:33:46;;;;;;;7.28;2.85;;;;;;;25.51;34.87;102059.91;5135369;27;20026;-41
2021/06/14 09:36:12;;;;;;;4.57;2.50;;;;;;;25.62;35.13;102062.22;5134391;27;20019;-41
2021/06/14 09:38:38;;;;;;;7.15;2.95;;;;;;;25.64;35.33;102059.13;5135751;27;20449;-41
2021/06/14 09:41:15;;;;;;;7.85;2.85;;;;;;;25.71;35.57;102058.72;5134741;27;20043;-41
2021/06/14 09:43:46;;;;;;;7.38;2.85;;;;;;;25.80;34.86;102054.97;5134633;27;20021;-41
2021/06/14 09:46:27;;;;;;;9.55;3.30;;;;;;;26.02;36.49;102057.09;5134657;27;20485;-41
2021/06/14 09:48:53;;;;;;;5.70;2.60;;;;;;;26.12;34.93;102058.84;5134573;27;20035;-41
2021/06/14 09:51:19;;;;;;;6.85;2.75;;;;;;;26.19;35.38;102067.56;5133840;27;20015;-41
2021/06/14 09:53:47;;;;;;;5.97;2.97;;;;;;;26.27;34.97;102052.97;5134809;27;20050;-41
2021/06/14 09:56:16;;;;;;;4.38;2.60;;;;;;;26.36;34.45;102059.44;5134746;27;20047;-41
2021/06/14 09:58:42;;;;;;;6.82;2.78;;;;;;;26.53;34.92;102058.03;5134571;27;20019;-41
2021/06/14 10:01:09;;;;;;;10.15;2.88;;;;;;;26.57;34.94;102059.88;5134618;27;20064;-41
2021/06/14 10:03:43;;;;;;;4.97;2.90;;;;;;;26.79;35.52;102056.34;5134606;27;20027;-41
2021/06/14 10:06:09;;;;;;;4.22;2.47;;;;;;;26.92;34.53;102044.38;5134620;27;20023;-41
2021/06/14 10:08:35;;;;;;;6.95;2.90;;;;;;;27.03;35.32;102049.69;5134636;27;20023;-41
2021/06/14 10:11:11;;;;;;;6.18;2.90;;;;;;;27.19;34.19;102051.03;5135086;27;20023;-41
2021/06/14 10:13:39;;;;;;;7.07;2.70;;;;;;;27.26;33.94;102051.38;5134475;27;20038;-41
2021/06/14 10:16:07;;;;;;;9.43;2.72;;;;;;;27.14;34.65;102051.13;5134861;27;20030;-41
2021/06/14 10:18:43;;;;;;;4.90;2.72;;;;;;;27.12;34.91;102045.88;5134136;27;20081;-41
2021/06/14 10:21:27;;;;;;;;;;;;;;;27.42;34.91;102040.72;5135271;27;20029;-41
2021/06/14 10:23:55;;;;;;;5.38;3.00;;;;;;;27.30;34.02;102051.59;5134460;27;19904;-41
2021/06/14 10:26:22;;;;;;;5.45;3.03;;;;;;;27.38;34.54;102045.28;5134377;27;20024;-41
2021/06/14 10:28:49;;;;;;;8.68;2.85;;;;;;;27.40;33.97;102043.81;5134818;27;20043;-41
2021/06/14 10:31:15;;;;;;;7.82;2.92;;;;;;;27.52;33.98;102037.66;5134940;27;20023;-41
2021/06/14 10:33:41;;;;;;;7.95;2.40;;;;;;;27.75;34.36;102035.72;5134968;27;20020;-41
2021/06/14 10:36:08;;;;;;;6.50;2.50;;;;;;;27.69;34.78;102039.75;5134984;27;20058;-41
2021/06/14 10:38:38;;;;;;;7.40;2.75;;;;;;;27.68;33.57;102046.44;5134521;27;20059;-41
2021/06/14 10:41:04;;;;;;;4.30;2.60;;;;;;;27.83;32.76;102021.06;5135219;27;20077;-41
2021/06/14 10:43:31;;;;;;;10.90;2.53;;;;;;;27.90;33.75;102020.59;5134244;27;20030;-41
2021/06/14 10:45:57;;;;;;;5.93;2.78;;;;;;;28.03;33.28;102024.41;5135105;27;20035;-41
2021/06/14 10:48:29;;;;;;;7.00;2.88;;;;;;;28.06;32.22;102018.19;5137192;27;20022;-39
2021/06/14 10:50:56;;;;;;;5.53;2.90;;;;;;;28.09;32.10;102021.16;5138562;27;20117;-41
2021/06/14 10:53:27;;;;;;;5.95;2.35;;;;;;;28.13;32.75;102018.56;5139031;27;20023;-41
2021/06/14 10:55:52;;;;;;;5.43;2.30;;;;;;;28.27;31.67;102024.81;5138495;27;20102;-41
2021/06/14 10:58:19;;;;;;;4.25;2.20;;;;;;;28.37;32.34;102007.84;5139013;27;20149;-41
2021/06/14 11:00:57;;;;;;;6.70;2.25;;;;;;;28.35;31.39;102015.69;5138340;27;20019;-41
2021/06/14 11:03:22;;;;;;;5.00;2.30;;;;;;;28.44;30.95;102010.97;5138406;27;20090;-41
2021/06/14 11:05:48;;;;;;;4.32;2.30;;;;;;;28.44;33.30;102013.75;5137972;27;20168;-41
2021/06/14 11:08:21;;;;;;;6.03;2.72;;;;;;;28.48;32.70;102005.59;5138746;27;20049;-41
2021/06/14 11:11:07;;;;;;;4.25;2.55;;;;;;;28.73;33.72;101996.44;5138754;27;20431;-41
2021/06/14 11:13:45;;;;;;;4.83;2.37;;;;;;;28.85;32.43;101992.22;5137393;27;20047;-41
2021/06/14 11:16:10;;;;;;;6.05;2.50;;;;;;;28.89;30.78;101984.81;5137816;27;20015;-41
2021/06/14 11:18:36;;;;;;;4.57;2.40;;;;;;;28.74;31.02;101997.25;5137979;27;20331;-41
2021/06/14 11:21:12;;;;;;;3.88;2.13;;;;;;;28.78;31.55;101998.25;5137668;27;20027;-41
2021/06/14 11:23:38;;;;;;;;;;;;;;;29.23;31.28;102003.47;5137797;27;20019;-41
2021/06/14 11:26:05;;;;;;;4.35;2.00;;;;;;;29.10;29.02;102001.72;5137931;27;20013;-41
2021/06/14 11:28:42;;;;;;;5.25;2.20;;;;;;;29.03;30.46;101998.59;5137345;27;20467;-42
2021/06/14 11:31:21;;;;;;;5.35;1.98;;;;;;;29.18;28.71;102001.72;5136203;27;20065;-41
2021/06/14 11:33:49;;;;;;;4.28;2.17;;;;;;;29.11;28.30;101989.44;5137380;27;20023;-41
2021/06/14 11:36:31;;;;;;;4.75;2.10;;;;;;;29.42;28.13;101987.22;5136584;27;20284;-41